sensor_id;sensor_type;location;lat;lon;timestamp;pressure;altitude;pressure_sealevel;temperature;humidity
6345;BME280;3205;42.666;23.264;2023-04-20T00:02:01;94056.31;;;10.41;nan
6345;BME280;3205;42.666;23.264;2023-04-20T00:04:27;94047.47;;;10.34;nan
6345;BME280;3205;42.666;23.264;2023-04-20T00:06:53;94046.22;;;10.31;nan
6345;BME280;3205;42.666;23.264;2023-04-20T00:09:22;94046.31;;;10.34;nan
6345;BME280;3205;42.666;23.264;2023-04-20T00:11:48;94039.75;;;10.29;nan
6345;BME280;3205;42.666;23.264;2023-04-20T00:14:14;94033.81;;;10.32;nan
6345;BME280;3205;42.666;23.264;2023-04-20T00:16:40;94036.09;;;10.33;nan
6345;BME280;3205;42.666;23.264;2023-04-20T00:19:06;94028.53;;;10.32;nan
6345;BME280;3205;42.666;23.264;2023-04-20T00:21:33;94028.53;;;10.32;nan
6345;BME280;3205;42.666;23.264;2023-04-20T00:24:00;94031.50;;;10.30;nan
6345;BME280;3205;42.666;23.264;2023-04-20T00:26:26;94032.44;;;10.37;nan
6345;BME280;3205;42.666;23.264;2023-04-20T00:28:52;94033.13;;;10.34;nan
6345;BME280;3205;42.666;23.264;2023-04-20T00:31:19;94033.66;;;10.40;nan
6345;BME280;3205;42.666;23.264;2023-04-20T00:33:46;94028.53;;;10.47;nan
6345;BME280;3205;42.666;23.264;2023-04-20T00:36:12;94025.31;;;10.53;nan
6345;BME280;3205;42.666;23.264;2023-04-20T00:38:38;94026.88;;;10.54;nan
6345;BME280;3205;42.666;23.264;2023-04-20T00:41:04;94032.16;;;10.54;nan
6345;BME280;3205;42.666;23.264;2023-04-20T00:43:31;94018.31;;;10.61;nan
6345;BME280;3205;42.666;23.264;2023-04-20T00:45:57;94021.31;;;10.59;nan
6345;BME280;3205;42.666;23.264;2023-04-20T00:48:23;94022.31;;;10.70;nan
6345;BME280;3205;42.666;23.264;2023-04-20T00:50:50;94027.19;;;10.68;nan
6345;BME280;3205;42.666;23.264;2023-04-20T00:53:17;94020.13;;;10.72;nan
6345;BME280;3205;42.666;23.264;2023-04-20T00:55:44;94026.59;;;10.75;nan
6345;BME280;3205;42.666;23.264;2023-04-20T00:58:11;94023.28;;;10.78;nan
6345;BME280;3205;42.666;23.264;2023-04-20T01:00:38;94030.44;;;10.77;nan
6345;BME280;3205;42.666;23.264;2023-04-20T01:03:05;94020.63;;;10.78;nan
6345;BME280;3205;42.666;23.264;2023-04-20T01:05:32;94022.06;;;10.75;nan
6345;BME280;3205;42.666;23.264;2023-04-20T01:07:58;94019.41;;;10.75;nan
6345;BME280;3205;42.666;23.264;2023-04-20T01:10:24;94013.81;;;10.77;nan
6345;BME280;3205;42.666;23.264;2023-04-20T01:12:51;94017.22;;;10.77;nan
6345;BME280;3205;42.666;23.264;2023-04-20T01:15:17;94011.94;;;10.77;nan
6345;BME280;3205;42.666;23.264;2023-04-20T01:17:44;94015.00;;;10.79;nan
6345;BME280;3205;42.666;23.264;2023-04-20T01:20:10;94022.94;;;10.79;nan
6345;BME280;3205;42.666;23.264;2023-04-20T01:22:43;94019.19;;;10.80;nan
6345;BME280;3205;42.666;23.264;2023-04-20T01:25:09;94025.59;;;10.64;nan
6345;BME280;3205;42.666;23.264;2023-04-20T01:27:35;94023.97;;;10.59;nan
6345;BME280;3205;42.666;23.264;2023-04-20T01:30:01;94031.88;;;10.59;nan
6345;BME280;3205;42.666;23.264;2023-04-20T01:32:27;94022.06;;;10.60;nan
6345;BME280;3205;42.666;23.264;2023-04-20T01:34:55;94019.88;;;10.62;nan
6345;BME280;3205;42.666;23.264;2023-04-20T01:37:21;94012.34;;;10.48;nan
6345;BME280;3205;42.666;23.264;2023-04-20T01:39:47;94008.69;;;10.53;nan
6345;BME280;3205;42.666;23.264;2023-04-20T01:42:14;94006.38;;;10.51;nan
6345;BME280;3205;42.666;23.264;2023-04-20T01:44:40;93998.03;;;10.49;nan
6345;BME280;3205;42.666;23.264;2023-04-20T01:47:06;93999.13;;;10.48;nan
6345;BME280;3205;42.666;23.264;2023-04-20T01:49:32;93995.66;;;10.44;nan
6345;BME280;3205;42.666;23.264;2023-04-20T01:51:58;93995.66;;;10.44;nan
6345;BME280;3205;42.666;23.264;2023-04-20T01:54:24;93988.38;;;10.41;nan
6345;BME280;3205;42.666;23.264;2023-04-20T01:56:51;94001.50;;;10.38;nan
6345;BME280;3205;42.666;23.264;2023-04-20T01:59:17;93995.28;;;10.31;nan
6345;BME280;3205;42.666;23.264;2023-04-20T02:01:43;93994.00;;;10.25;nan
6345;BME280;3205;42.666;23.264;2023-04-20T02:04:09;93986.00;;;10.21;nan
6345;BME280;3205;42.666;23.264;2023-04-20T02:06:35;93991.19;;;10.18;nan
6345;BME280;3205;42.666;23.264;2023-04-20T02:09:01;93983.16;;;10.14;nan
6345;BME280;3205;42.666;23.264;2023-04-20T02:11:30;93987.19;;;10.24;nan
6345;BME280;3205;42.666;23.264;2023-04-20T02:13:57;93987.63;;;10.26;nan
6345;BME280;3205;42.666;23.264;2023-04-20T02:16:23;93983.69;;;10.20;nan
6345;BME280;3205;42.666;23.264;2023-04-20T02:18:49;93981.63;;;10.29;nan
6345;BME280;3205;42.666;23.264;2023-04-20T02:21:15;93986.84;;;10.25;nan
6345;BME280;3205;42.666;23.264;2023-04-20T02:23:41;93987.38;;;10.31;nan
6345;BME280;3205;42.666;23.264;2023-04-20T02:26:07;93994.84;;;10.29;nan
6345;BME280;3205;42.666;23.264;2023-04-20T02:28:33;93984.72;;;10.31;nan
6345;BME280;3205;42.666;23.264;2023-04-20T02:31:00;93992.06;;;10.37;nan
6345;BME280;3205;42.666;23.264;2023-04-20T02:33:26;93989.66;;;10.32;nan
6345;BME280;3205;42.666;23.264;2023-04-20T02:35:52;93985.66;;;10.38;nan
6345;BME280;3205;42.666;23.264;2023-04-20T02:38:18;93987.19;;;10.39;nan
6345;BME280;3205;42.666;23.264;2023-04-20T02:40:44;93990.44;;;10.48;nan
6345;BME280;3205;42.666;23.264;2023-04-20T02:43:10;93993.19;;;10.51;nan
6345;BME280;3205;42.666;23.264;2023-04-20T02:45:36;93996.00;;;10.58;nan
6345;BME280;3205;42.666;23.264;2023-04-20T02:48:04;93993.53;;;10.65;nan
6345;BME280;3205;42.666;23.264;2023-04-20T02:50:30;93993.09;;;10.63;nan
6345;BME280;3205;42.666;23.264;2023-04-20T02:52:57;94004.00;;;10.62;nan
6345;BME280;3205;42.666;23.264;2023-04-20T02:55:24;94004.44;;;10.64;nan
6345;BME280;3205;42.666;23.264;2023-04-20T02:57:51;93996.00;;;10.58;nan
6345;BME280;3205;42.666;23.264;2023-04-20T03:00:18;93995.63;;;10.60;nan
6345;BME280;3205;42.666;23.264;2023-04-20T03:02:44;94001.19;;;10.55;nan
6345;BME280;3205;42.666;23.264;2023-04-20T03:05:11;93998.47;;;10.51;nan
6345;BME280;3205;42.666;23.264;2023-04-20T03:07:37;93998.72;;;10.46;nan
6345;BME280;3205;42.666;23.264;2023-04-20T03:10:04;93992.25;;;10.44;nan
6345;BME280;3205;42.666;23.264;2023-04-20T03:12:31;93997.63;;;10.47;nan
6345;BME280;3205;42.666;23.264;2023-04-20T03:14:57;93996.16;;;10.50;nan
6345;BME280;3205;42.666;23.264;2023-04-20T03:17:23;93997.69;;;10.51;nan
6345;BME280;3205;42.666;23.264;2023-04-20T03:19:49;93984.31;;;10.44;nan
6345;BME280;3205;42.666;23.264;2023-04-20T03:22:16;93986.69;;;10.49;nan
6345;BME280;3205;42.666;23.264;2023-04-20T03:24:43;93987.81;;;10.48;nan
6345;BME280;3205;42.666;23.264;2023-04-20T03:27:09;93989.34;;;10.49;nan
6345;BME280;3205;42.666;23.264;2023-04-20T03:29:35;93991.53;;;10.47;nan
6345;BME280;3205;42.666;23.264;2023-04-20T03:32:02;93996.91;;;10.50;nan
6345;BME280;3205;42.666;23.264;2023-04-20T03:34:28;93991.19;;;10.48;nan
6345;BME280;3205;42.666;23.264;2023-04-20T03:36:54;94000.84;;;10.56;nan
6345;BME280;3205;42.666;23.264;2023-04-20T03:39:21;93997.09;;;10.57;nan
6345;BME280;3205;42.666;23.264;2023-04-20T03:41:47;93997.78;;;10.54;nan
6345;BME280;3205;42.666;23.264;2023-04-20T03:44:13;94003.91;;;10.58;nan
6345;BME280;3205;42.666;23.264;2023-04-20T03:46:39;94002.81;;;10.59;nan
6345;BME280;3205;42.666;23.264;2023-04-20T03:49:06;94002.13;;;10.62;nan
6345;BME280;3205;42.666;23.264;2023-04-20T03:51:32;93999.16;;;10.64;nan
6345;BME280;3205;42.666;23.264;2023-04-20T03:53:58;94003.66;;;10.63;nan
6345;BME280;3205;42.666;23.264;2023-04-20T03:56:25;94000.06;;;10.71;nan
6345;BME280;3205;42.666;23.264;2023-04-20T03:58:51;94012.69;;;10.62;nan
6345;BME280;3205;42.666;23.264;2023-04-20T04:01:17;93996.75;;;10.59;nan
6345;BME280;3205;42.666;23.264;2023-04-20T04:03:45;94003.22;;;10.61;nan
6345;BME280;3205;42.666;23.264;2023-04-20T04:06:12;94010.47;;;10.64;nan
6345;BME280;3205;42.666;23.264;2023-04-20T04:08:38;94006.31;;;10.63;nan
6345;BME280;3205;42.666;23.264;2023-04-20T04:11:04;94006.03;;;10.68;nan
6345;BME280;3205;42.666;23.264;2023-04-20T04:13:31;94019.34;;;10.72;nan
6345;BME280;3205;42.666;23.264;2023-04-20T04:15:57;94009.13;;;10.70;nan
6345;BME280;3205;42.666;23.264;2023-04-20T04:18:23;94009.13;;;10.70;nan
6345;BME280;3205;42.666;23.264;2023-04-20T04:20:49;94022.59;;;10.65;nan
6345;BME280;3205;42.666;23.264;2023-04-20T04:23:15;94012.84;;;10.69;nan
6345;BME280;3205;42.666;23.264;2023-04-20T04:25:41;94008.28;;;10.66;nan
6345;BME280;3205;42.666;23.264;2023-04-20T04:28:08;94017.81;;;10.71;nan
6345;BME280;3205;42.666;23.264;2023-04-20T04:30:34;94008.84;;;10.75;nan
6345;BME280;3205;42.666;23.264;2023-04-20T04:33:00;94016.09;;;10.78;nan
6345;BME280;3205;42.666;23.264;2023-04-20T04:35:29;94017.28;;;10.81;nan
6345;BME280;3205;42.666;23.264;2023-04-20T04:37:55;94013.91;;;10.80;nan
6345;BME280;3205;42.666;23.264;2023-04-20T04:40:21;94021.03;;;10.80;nan
6345;BME280;3205;42.666;23.264;2023-04-20T04:42:48;94023.09;;;10.86;nan
6345;BME280;3205;42.666;23.264;2023-04-20T04:45:14;94021.22;;;10.87;nan
6345;BME280;3205;42.666;23.264;2023-04-20T04:47:41;94030.78;;;10.91;nan
6345;BME280;3205;42.666;23.264;2023-04-20T04:50:08;94029.66;;;10.92;nan
6345;BME280;3205;42.666;23.264;2023-04-20T04:52:35;94033.56;;;10.98;nan
6345;BME280;3205;42.666;23.264;2023-04-20T04:55:01;94039.38;;;11.04;nan
6345;BME280;3205;42.666;23.264;2023-04-20T04:57:28;94039.31;;;11.00;nan
6345;BME280;3205;42.666;23.264;2023-04-20T04:59:54;94041.69;;;11.05;nan
6345;BME280;3205;42.666;23.264;2023-04-20T05:02:20;94033.75;;;11.05;nan
6345;BME280;3205;42.666;23.264;2023-04-20T05:04:47;94041.41;;;11.10;nan
6345;BME280;3205;42.666;23.264;2023-04-20T05:07:13;94049.44;;;11.13;nan
6345;BME280;3205;42.666;23.264;2023-04-20T05:09:40;94045.69;;;11.14;nan
6345;BME280;3205;42.666;23.264;2023-04-20T05:12:06;94043.53;;;11.20;nan
6345;BME280;3205;42.666;23.264;2023-04-20T05:14:32;94049.25;;;11.22;nan
6345;BME280;3205;42.666;23.264;2023-04-20T05:16:59;94043.19;;;11.21;nan
6345;BME280;3205;42.666;23.264;2023-04-20T05:19:26;94043.53;;;11.20;nan
6345;BME280;3205;42.666;23.264;2023-04-20T05:21:53;94048.22;;;11.26;nan
6345;BME280;3205;42.666;23.264;2023-04-20T05:24:19;94044.81;;;11.26;nan
6345;BME280;3205;42.666;23.264;2023-04-20T05:26:45;94045.72;;;11.33;nan
6345;BME280;3205;42.666;23.264;2023-04-20T05:29:14;94049.16;;;11.34;nan
6345;BME280;3205;42.666;23.264;2023-04-20T05:31:40;94051.53;;;11.39;nan
6345;BME280;3205;42.666;23.264;2023-04-20T05:34:06;94051.81;;;11.34;nan
6345;BME280;3205;42.666;23.264;2023-04-20T05:36:32;94045.31;;;11.31;nan
6345;BME280;3205;42.666;23.264;2023-04-20T05:38:59;94056.81;;;11.39;nan
6345;BME280;3205;42.666;23.264;2023-04-20T05:41:25;94056.75;;;11.35;nan
6345;BME280;3205;42.666;23.264;2023-04-20T05:43:53;94059.66;;;11.30;nan
6345;BME280;3205;42.666;23.264;2023-04-20T05:46:19;94065.72;;;11.31;nan
6345;BME280;3205;42.666;23.264;2023-04-20T05:48:46;94058.19;;;11.33;nan
6345;BME280;3205;42.666;23.264;2023-04-20T05:51:12;94071.44;;;11.33;nan
6345;BME280;3205;42.666;23.264;2023-04-20T05:53:39;94065.97;;;11.26;nan
6345;BME280;3205;42.666;23.264;2023-04-20T05:56:06;94055.19;;;11.34;nan
6345;BME280;3205;42.666;23.264;2023-04-20T05:58:34;94062.38;;;11.34;nan
6345;BME280;3205;42.666;23.264;2023-04-20T06:01:01;94061.44;;;11.42;nan
6345;BME280;3205;42.666;23.264;2023-04-20T06:03:28;94065.00;;;11.49;nan
6345;BME280;3205;42.666;23.264;2023-04-20T06:05:54;94052.00;;;11.25;nan
6345;BME280;3205;42.666;23.264;2023-04-20T06:08:20;94053.84;;;11.25;nan
6345;BME280;3205;42.666;23.264;2023-04-20T06:10:46;94052.31;;;11.24;nan
6345;BME280;3205;42.666;23.264;2023-04-20T06:13:13;94042.59;;;11.28;nan
6345;BME280;3205;42.666;23.264;2023-04-20T06:15:39;94044.78;;;11.41;nan
6345;BME280;3205;42.666;23.264;2023-04-20T06:18:05;94047.22;;;11.50;nan
6345;BME280;3205;42.666;23.264;2023-04-20T06:20:31;94051.50;;;11.54;nan
6345;BME280;3205;42.666;23.264;2023-04-20T06:22:57;94049.38;;;11.60;nan
6345;BME280;3205;42.666;23.264;2023-04-20T06:25:23;94043.63;;;11.73;nan
6345;BME280;3205;42.666;23.264;2023-04-20T06:27:50;94054.06;;;12.04;nan
6345;BME280;3205;42.666;23.264;2023-04-20T06:30:16;94060.69;;;12.32;nan
6345;BME280;3205;42.666;23.264;2023-04-20T06:32:42;94062.78;;;12.42;nan
6345;BME280;3205;42.666;23.264;2023-04-20T06:35:09;94066.16;;;12.61;nan
6345;BME280;3205;42.666;23.264;2023-04-20T06:37:35;94062.50;;;12.69;nan
6345;BME280;3205;42.666;23.264;2023-04-20T06:40:01;94065.38;;;12.61;nan
6345;BME280;3205;42.666;23.264;2023-04-20T06:42:29;94066.94;;;12.62;nan
6345;BME280;3205;42.666;23.264;2023-04-20T06:44:55;94066.28;;;12.68;nan
6345;BME280;3205;42.666;23.264;2023-04-20T06:47:22;94076.13;;;12.68;nan
6345;BME280;3205;42.666;23.264;2023-04-20T06:49:55;94077.72;;;12.72;nan
6345;BME280;3205;42.666;23.264;2023-04-20T06:52:21;94080.03;;;12.74;nan
6345;BME280;3205;42.666;23.264;2023-04-20T06:54:48;94080.03;;;12.74;nan
6345;BME280;3205;42.666;23.264;2023-04-20T06:57:14;94081.59;;;12.56;nan
6345;BME280;3205;42.666;23.264;2023-04-20T06:59:40;94084.97;;;12.34;nan
6345;BME280;3205;42.666;23.264;2023-04-20T07:02:07;94078.34;;;12.25;nan
6345;BME280;3205;42.666;23.264;2023-04-20T07:04:34;94083.84;;;12.16;nan
6345;BME280;3205;42.666;23.264;2023-04-20T07:07:00;94074.09;;;12.20;nan
6345;BME280;3205;42.666;23.264;2023-04-20T07:09:26;94080.34;;;12.31;nan
6345;BME280;3205;42.666;23.264;2023-04-20T07:11:52;94083.41;;;12.52;nan
6345;BME280;3205;42.666;23.264;2023-04-20T07:14:20;94081.00;;;12.66;nan
6345;BME280;3205;42.666;23.264;2023-04-20T07:16:46;94080.03;;;12.74;nan
6345;BME280;3205;42.666;23.264;2023-04-20T07:19:12;94084.41;;;12.85;nan
6345;BME280;3205;42.666;23.264;2023-04-20T07:21:39;94089.56;;;12.97;nan
6345;BME280;3205;42.666;23.264;2023-04-20T07:24:05;94096.81;;;13.23;nan
6345;BME280;3205;42.666;23.264;2023-04-20T07:26:31;94091.50;;;13.48;nan
6345;BME280;3205;42.666;23.264;2023-04-20T07:28:58;94087.94;;;13.63;nan
6345;BME280;3205;42.666;23.264;2023-04-20T07:31:24;94095.25;;;13.96;nan
6345;BME280;3205;42.666;23.264;2023-04-20T07:33:50;94094.03;;;14.48;nan
6345;BME280;3205;42.666;23.264;2023-04-20T07:36:16;94093.03;;;15.39;nan
6345;BME280;3205;42.666;23.264;2023-04-20T07:38:42;94090.59;;;16.31;nan
6345;BME280;3205;42.666;23.264;2023-04-20T07:41:09;94082.91;;;17.42;nan
6345;BME280;3205;42.666;23.264;2023-04-20T07:43:35;94094.03;;;18.82;nan
6345;BME280;3205;42.666;23.264;2023-04-20T07:46:01;94088.44;;;20.55;nan
6345;BME280;3205;42.666;23.264;2023-04-20T07:48:27;94087.28;;;21.15;nan
6345;BME280;3205;42.666;23.264;2023-04-20T07:50:54;94086.38;;;21.78;nan
6345;BME280;3205;42.666;23.264;2023-04-20T07:53:20;94098.19;;;21.84;nan
6345;BME280;3205;42.666;23.264;2023-04-20T07:55:47;94095.69;;;22.16;nan
6345;BME280;3205;42.666;23.264;2023-04-20T07:58:13;94102.13;;;22.22;nan
6345;BME280;3205;42.666;23.264;2023-04-20T08:00:40;94096.25;;;22.30;nan
6345;BME280;3205;42.666;23.264;2023-04-20T08:03:06;94090.59;;;23.37;nan
6345;BME280;3205;42.666;23.264;2023-04-20T08:05:32;94083.91;;;25.47;nan
6345;BME280;3205;42.666;23.264;2023-04-20T08:07:58;94089.44;;;28.43;nan
6345;BME280;3205;42.666;23.264;2023-04-20T08:10:25;94098.47;;;30.67;nan
6345;BME280;3205;42.666;23.264;2023-04-20T08:12:51;94093.88;;;31.11;nan
6345;BME280;3205;42.666;23.264;2023-04-20T08:15:18;94091.50;;;29.46;nan
6345;BME280;3205;42.666;23.264;2023-04-20T08:17:44;94103.09;;;27.34;nan
6345;BME280;3205;42.666;23.264;2023-04-20T08:20:10;94102.19;;;25.55;nan
6345;BME280;3205;42.666;23.264;2023-04-20T08:22:37;94103.13;;;24.11;nan
6345;BME280;3205;42.666;23.264;2023-04-20T08:25:04;94108.47;;;22.12;nan
6345;BME280;3205;42.666;23.264;2023-04-20T08:27:30;94106.16;;;20.82;nan
6345;BME280;3205;42.666;23.264;2023-04-20T08:29:57;94106.59;;;19.56;nan
6345;BME280;3205;42.666;23.264;2023-04-20T08:32:23;94111.63;;;18.83;nan
6345;BME280;3205;42.666;23.264;2023-04-20T08:34:51;94109.16;;;18.31;nan
6345;BME280;3205;42.666;23.264;2023-04-20T08:37:18;94114.56;;;17.82;nan
6345;BME280;3205;42.666;23.264;2023-04-20T08:39:44;94110.00;;;17.65;nan
6345;BME280;3205;42.666;23.264;2023-04-20T08:42:11;94105.03;;;17.36;nan
6345;BME280;3205;42.666;23.264;2023-04-20T08:44:37;94109.22;;;17.33;nan
6345;BME280;3205;42.666;23.264;2023-04-20T08:47:03;94117.56;;;17.18;nan
6345;BME280;3205;42.666;23.264;2023-04-20T08:49:30;94104.03;;;16.48;nan
6345;BME280;3205;42.666;23.264;2023-04-20T08:51:57;94104.59;;;16.18;nan
6345;BME280;3205;42.666;23.264;2023-04-20T08:54:23;94109.84;;;16.00;nan
6345;BME280;3205;42.666;23.264;2023-04-20T08:56:49;94105.25;;;15.97;nan
6345;BME280;3205;42.666;23.264;2023-04-20T08:59:15;94105.25;;;15.97;nan
6345;BME280;3205;42.666;23.264;2023-04-20T09:01:42;94108.59;;;15.84;nan
6345;BME280;3205;42.666;23.264;2023-04-20T09:04:16;94112.28;;;15.65;nan
6345;BME280;3205;42.666;23.264;2023-04-20T09:06:43;94113.34;;;15.54;nan
6345;BME280;3205;42.666;23.264;2023-04-20T09:09:09;94110.25;;;15.49;nan
6345;BME280;3205;42.666;23.264;2023-04-20T09:11:36;94109.44;;;15.41;nan
6345;BME280;3205;42.666;23.264;2023-04-20T09:14:03;94106.81;;;15.48;nan
6345;BME280;3205;42.666;23.264;2023-04-20T09:16:31;94103.69;;;15.39;nan
6345;BME280;3205;42.666;23.264;2023-04-20T09:18:57;94106.31;;;15.32;nan
6345;BME280;3205;42.666;23.264;2023-04-20T09:21:26;94107.94;;;15.47;nan
6345;BME280;3205;42.666;23.264;2023-04-20T09:23:57;94106.13;;;15.58;nan
6345;BME280;3205;42.666;23.264;2023-04-20T09:26:24;94100.91;;;15.72;nan
6345;BME280;3205;42.666;23.264;2023-04-20T09:28:50;94099.47;;;15.88;nan
6345;BME280;3205;42.666;23.264;2023-04-20T09:31:17;94094.66;;;16.08;nan
6345;BME280;3205;42.666;23.264;2023-04-20T09:33:43;94091.75;;;16.30;nan
6345;BME280;3205;42.666;23.264;2023-04-20T09:36:09;94092.31;;;16.77;nan
6345;BME280;3205;42.666;23.264;2023-04-20T09:38:37;94085.19;;;17.30;nan
6345;BME280;3205;42.666;23.264;2023-04-20T09:41:03;94093.53;;;17.98;nan
6345;BME280;3205;42.666;23.264;2023-04-20T09:43:29;94095.78;;;18.34;nan
6345;BME280;3205;42.666;23.264;2023-04-20T09:45:55;94096.34;;;18.80;nan
6345;BME280;3205;42.666;23.264;2023-04-20T09:48:22;94082.41;;;19.13;nan
6345;BME280;3205;42.666;23.264;2023-04-20T09:50:48;94090.97;;;19.48;nan
6345;BME280;3205;42.666;23.264;2023-04-20T09:53:15;94085.28;;;19.86;nan
6345;BME280;3205;42.666;23.264;2023-04-20T09:55:44;94084.31;;;19.66;nan
6345;BME280;3205;42.666;23.264;2023-04-20T09:58:11;94079.50;;;19.44;nan
6345;BME280;3205;42.666;23.264;2023-04-20T10:00:38;94074.91;;;19.44;nan
6345;BME280;3205;42.666;23.264;2023-04-20T10:03:05;94079.13;;;19.42;nan
6345;BME280;3205;42.666;23.264;2023-04-20T10:05:34;94078.59;;;19.10;nan
6345;BME280;3205;42.666;23.264;2023-04-20T10:08:01;94073.13;;;19.28;nan
6345;BME280;3205;42.666;23.264;2023-04-20T10:10:27;94070.28;;;19.48;nan
6345;BME280;3205;42.666;23.264;2023-04-20T10:12:57;94067.59;;;19.96;nan
6345;BME280;3205;42.666;23.264;2023-04-20T10:15:35;94069.72;;;20.11;nan
6345;BME280;3205;42.666;23.264;2023-04-20T10:18:01;94067.19;;;20.67;nan
6345;BME280;3205;42.666;23.264;2023-04-20T10:20:28;94067.03;;;20.81;nan
6345;BME280;3205;42.666;23.264;2023-04-20T10:23:08;94061.06;;;21.23;nan
6345;BME280;3205;42.666;23.264;2023-04-20T10:25:34;94065.94;;;21.80;nan
6345;BME280;3205;42.666;23.264;2023-04-20T10:28:03;94067.81;;;22.29;nan
6345;BME280;3205;42.666;23.264;2023-04-20T10:30:31;94063.00;;;22.75;nan
6345;BME280;3205;42.666;23.264;2023-04-20T10:33:05;94062.56;;;22.19;nan
6345;BME280;3205;42.666;23.264;2023-04-20T10:35:40;94058.16;;;21.86;nan
6345;BME280;3205;42.666;23.264;2023-04-20T10:38:07;94054.31;;;21.64;nan
6345;BME280;3205;42.666;23.264;2023-04-20T10:40:34;94058.44;;;21.91;nan
6345;BME280;3205;42.666;23.264;2023-04-20T10:43:01;94059.63;;;21.90;nan
6345;BME280;3205;42.666;23.264;2023-04-20T10:45:33;94048.56;;;21.62;nan
6345;BME280;3205;42.666;23.264;2023-04-20T10:48:06;94054.72;;;21.36;nan
6345;BME280;3205;42.666;23.264;2023-04-20T10:50:33;94057.09;;;20.78;nan
6345;BME280;3205;42.666;23.264;2023-04-20T10:52:59;94054.63;;;20.27;nan
6345;BME280;3205;42.666;23.264;2023-04-20T10:55:25;94044.41;;;19.75;nan
6345;BME280;3205;42.666;23.264;2023-04-20T10:57:52;94056.34;;;19.17;nan
6345;BME280;3205;42.666;23.264;2023-04-20T11:00:21;94055.34;;;18.90;nan
6345;BME280;3205;42.666;23.264;2023-04-20T11:02:48;94056.81;;;19.01;nan
6345;BME280;3205;42.666;23.264;2023-04-20T11:05:15;94052.41;;;19.32;nan
6345;BME280;3205;42.666;23.264;2023-04-20T11:07:51;94046.44;;;19.57;nan
6345;BME280;3205;42.666;23.264;2023-04-20T11:10:18;94046.00;;;19.66;nan
6345;BME280;3205;42.666;23.264;2023-04-20T11:12:44;94030.53;;;19.80;nan
6345;BME280;3205;42.666;23.264;2023-04-20T11:15:10;94044.19;;;20.00;nan
6345;BME280;3205;42.666;23.264;2023-04-20T11:17:38;94032.13;;;19.74;nan
6345;BME280;3205;42.666;23.264;2023-04-20T11:20:06;94037.34;;;19.48;nan
6345;BME280;3205;42.666;23.264;2023-04-20T11:22:33;94022.09;;;19.82;nan
6345;BME280;3205;42.666;23.264;2023-04-20T11:25:02;94016.34;;;20.20;nan
6345;BME280;3205;42.666;23.264;2023-04-20T11:27:30;94017.84;;;20.24;nan
6345;BME280;3205;42.666;23.264;2023-04-20T11:29:56;94027.69;;;20.34;nan
6345;BME280;3205;42.666;23.264;2023-04-20T11:32:24;94025.91;;;20.84;nan
6345;BME280;3205;42.666;23.264;2023-04-20T11:34:58;94020.66;;;21.53;nan
6345;BME280;3205;42.666;23.264;2023-04-20T11:37:29;94016.16;;;21.92;nan
6345;BME280;3205;42.666;23.264;2023-04-20T11:39:59;94024.09;;;21.99;nan
6345;BME280;3205;42.666;23.264;2023-04-20T11:42:25;94017.13;;;22.01;nan
6345;BME280;3205;42.666;23.264;2023-04-20T11:44:51;94017.94;;;21.98;nan
6345;BME280;3205;42.666;23.264;2023-04-20T11:47:17;94012.75;;;21.88;nan
6345;BME280;3205;42.666;23.264;2023-04-20T11:49:43;94015.47;;;21.65;nan
6345;BME280;3205;42.666;23.264;2023-04-20T11:52:10;94020.13;;;21.84;nan
6345;BME280;3205;42.666;23.264;2023-04-20T11:54:37;94014.19;;;21.73;nan
6345;BME280;3205;42.666;23.264;2023-04-20T11:57:03;94016.97;;;21.43;nan
6345;BME280;3205;42.666;23.264;2023-04-20T11:59:29;94017.56;;;21.05;nan
6345;BME280;3205;42.666;23.264;2023-04-20T12:01:55;94019.44;;;20.82;nan
6345;BME280;3205;42.666;23.264;2023-04-20T12:04:21;94013.50;;;20.64;nan
6345;BME280;3205;42.666;23.264;2023-04-20T12:06:47;94010.75;;;20.04;nan
6345;BME280;3205;42.666;23.264;2023-04-20T12:09:14;94004.91;;;19.76;nan
6345;BME280;3205;42.666;23.264;2023-04-20T12:11:41;94011.84;;;19.30;nan
6345;BME280;3205;42.666;23.264;2023-04-20T12:14:07;94014.06;;;18.84;nan
6345;BME280;3205;42.666;23.264;2023-04-20T12:16:33;94025.06;;;18.21;nan
6345;BME280;3205;42.666;23.264;2023-04-20T12:18:59;94017.56;;;17.26;nan
6345;BME280;3205;42.666;23.264;2023-04-20T12:21:25;94024.38;;;16.50;nan
6345;BME280;3205;42.666;23.264;2023-04-20T12:23:52;94020.41;;;16.10;nan
6345;BME280;3205;42.666;23.264;2023-04-20T12:26:18;94021.47;;;15.95;nan
6345;BME280;3205;42.666;23.264;2023-04-20T12:28:45;94020.59;;;15.80;nan
6345;BME280;3205;42.666;23.264;2023-04-20T12:31:11;94015.28;;;15.84;nan
6345;BME280;3205;42.666;23.264;2023-04-20T12:33:40;94006.22;;;15.95;nan
6345;BME280;3205;42.666;23.264;2023-04-20T12:36:06;94007.34;;;15.91;nan
6345;BME280;3205;42.666;23.264;2023-04-20T12:38:32;94007.84;;;16.21;nan
6345;BME280;3205;42.666;23.264;2023-04-20T12:40:58;94001.16;;;16.68;nan
6345;BME280;3205;42.666;23.264;2023-04-20T12:43:25;93997.38;;;17.11;nan
6345;BME280;3205;42.666;23.264;2023-04-20T12:45:51;94005.00;;;17.51;nan
6345;BME280;3205;42.666;23.264;2023-04-20T12:48:17;93997.31;;;17.74;nan
6345;BME280;3205;42.666;23.264;2023-04-20T12:50:43;93995.41;;;17.81;nan
6345;BME280;3205;42.666;23.264;2023-04-20T12:53:09;93994.63;;;17.81;nan
6345;BME280;3205;42.666;23.264;2023-04-20T12:55:36;93992.69;;;17.91;nan
6345;BME280;3205;42.666;23.264;2023-04-20T12:58:02;93989.59;;;18.00;nan
6345;BME280;3205;42.666;23.264;2023-04-20T13:00:28;93988.41;;;18.11;nan
6345;BME280;3205;42.666;23.264;2023-04-20T13:02:54;93989.53;;;18.28;nan
6345;BME280;3205;42.666;23.264;2023-04-20T13:05:21;93992.03;;;18.59;nan
6345;BME280;3205;42.666;23.264;2023-04-20T13:07:47;93989.13;;;18.94;nan
6345;BME280;3205;42.666;23.264;2023-04-20T13:10:13;93987.84;;;19.16;nan
6345;BME280;3205;42.666;23.264;2023-04-20T13:12:42;93986.78;;;18.99;nan
6345;BME280;3205;42.666;23.264;2023-04-20T13:15:08;93987.69;;;18.82;nan
6345;BME280;3205;42.666;23.264;2023-04-20T13:17:35;93977.56;;;18.46;nan
6345;BME280;3205;42.666;23.264;2023-04-20T13:20:02;93982.22;;;18.35;nan
6345;BME280;3205;42.666;23.264;2023-04-20T13:22:29;93988.78;;;18.27;nan
6345;BME280;3205;42.666;23.264;2023-04-20T13:24:55;93982.66;;;18.16;nan
6345;BME280;3205;42.666;23.264;2023-04-20T13:27:21;93975.09;;;17.97;nan
6345;BME280;3205;42.666;23.264;2023-04-20T13:29:47;93977.84;;;17.70;nan